Impacts TAF Board INFO
FOR SITUATIONAL AWARENESS. NOT TO BE USED FOR FLIGHT PLANNING PURPOSES.
IDs:

KTPA - Tampa Intl Arpt, FL, US

Issued at 1306 UTC 22 Nov 2017
Updated at 1437 UTC 22 Nov 2017
Potential Impact None Slight Moderate High
Time<<23/15Z 23/16Z 23/17Z 23/18Z 23/19Z 23/20Z 23/21Z 23/22Z 23/23Z 24/00Z 24/01Z 24/02Z 24/03Z
Type PRVL PRVL PRVL
VIS >6 >6 >6
CIG 35 35 35
Cover BKN BKN BKN
FltCat VFR VFR VFR
WX SHRA SHRA SHRA
WDir 90 90 90
WSpd 7 7 7
WGst -- -- --

Raw TAF
KTPA 221306Z 2213/2318 VRB03KT 4SM BR SCT005 SCT150
  TEMPO 2213/2214 1/2SM FG BKN002
  FM221500 05004KT P6SM SCT020 SCT150
  FM221700 02005KT P6SM SCT035 SCT150
  FM222100 35005KT P6SM SCT040 BKN150
  FM230200 05006KT P6SM SCT040 BKN150
  FM230800 07006KT P6SM BKN015
  FM231400 09007KT P6SM SHRA SCT015 BKN035


METAR Board
Radar Display
Forecast Discussion

FOR SITUATIONAL AWARENESS. NOT TO BE USED FOR FLIGHT PLANNING PURPOSES.